sensor_id;sensor_type;location;lat;lon;timestamp;P1;durP1;ratioP1;P2;durP2;ratioP2
75437;SDS011;64015;49.392;15.582;2022-10-16T00:00:27;11.98;;;6.32;;
75437;SDS011;64015;49.392;15.582;2022-10-16T00:03:13;12.10;;;6.50;;
75437;SDS011;64015;49.392;15.582;2022-10-16T00:05:40;12.18;;;6.05;;
75437;SDS011;64015;49.392;15.582;2022-10-16T00:08:07;11.60;;;6.85;;
75437;SDS011;64015;49.392;15.582;2022-10-16T00:10:33;11.05;;;5.90;;
75437;SDS011;64015;49.392;15.582;2022-10-16T00:12:59;12.40;;;5.93;;
75437;SDS011;64015;49.392;15.582;2022-10-16T00:15:25;10.10;;;5.53;;
75437;SDS011;64015;49.392;15.582;2022-10-16T00:17:50;12.68;;;6.03;;
75437;SDS011;64015;49.392;15.582;2022-10-16T00:20:16;9.38;;;5.68;;
75437;SDS011;64015;49.392;15.582;2022-10-16T00:22:42;10.77;;;5.60;;
75437;SDS011;64015;49.392;15.582;2022-10-16T00:25:11;9.05;;;5.25;;
75437;SDS011;64015;49.392;15.582;2022-10-16T00:27:36;9.55;;;5.68;;
75437;SDS011;64015;49.392;15.582;2022-10-16T00:30:02;9.80;;;5.43;;
75437;SDS011;64015;49.392;15.582;2022-10-16T00:32:28;12.20;;;5.65;;
75437;SDS011;64015;49.392;15.582;2022-10-16T00:34:54;9.88;;;5.40;;
75437;SDS011;64015;49.392;15.582;2022-10-16T00:37:20;11.98;;;6.15;;
75437;SDS011;64015;49.392;15.582;2022-10-16T00:39:46;13.25;;;6.20;;
75437;SDS011;64015;49.392;15.582;2022-10-16T00:42:15;8.63;;;5.00;;
75437;SDS011;64015;49.392;15.582;2022-10-16T00:44:44;10.80;;;5.03;;
75437;SDS011;64015;49.392;15.582;2022-10-16T00:47:24;11.10;;;5.85;;
75437;SDS011;64015;49.392;15.582;2022-10-16T00:49:55;11.02;;;5.72;;
75437;SDS011;64015;49.392;15.582;2022-10-16T00:52:39;9.30;;;5.45;;
75437;SDS011;64015;49.392;15.582;2022-10-16T00:55:08;9.88;;;5.32;;
75437;SDS011;64015;49.392;15.582;2022-10-16T00:57:35;9.07;;;5.28;;
75437;SDS011;64015;49.392;15.582;2022-10-16T01:00:02;8.55;;;5.20;;
75437;SDS011;64015;49.392;15.582;2022-10-16T01:02:30;9.48;;;5.03;;
75437;SDS011;64015;49.392;15.582;2022-10-16T01:04:56;8.18;;;4.80;;
75437;SDS011;64015;49.392;15.582;2022-10-16T01:13:02;10.27;;;4.80;;
75437;SDS011;64015;49.392;15.582;2022-10-16T01:16:15;9.88;;;5.22;;
75437;SDS011;64015;49.392;15.582;2022-10-16T01:18:28;9.48;;;5.05;;
75437;SDS011;64015;49.392;15.582;2022-10-16T01:21:05;10.98;;;5.40;;
75437;SDS011;64015;49.392;15.582;2022-10-16T01:29:14;11.70;;;5.18;;
75437;SDS011;64015;49.392;15.582;2022-10-16T01:31:47;7.93;;;4.72;;
75437;SDS011;64015;49.392;15.582;2022-10-16T01:34:20;7.93;;;4.43;;
75437;SDS011;64015;49.392;15.582;2022-10-16T01:36:50;8.90;;;4.82;;
75437;SDS011;64015;49.392;15.582;2022-10-16T01:39:22;7.57;;;4.25;;
75437;SDS011;64015;49.392;15.582;2022-10-16T01:41:54;8.55;;;4.50;;
75437;SDS011;64015;49.392;15.582;2022-10-16T01:44:29;8.50;;;5.05;;
75437;SDS011;64015;49.392;15.582;2022-10-16T01:46:57;10.85;;;4.95;;
75437;SDS011;64015;49.392;15.582;2022-10-16T01:49:25;9.15;;;4.80;;
75437;SDS011;64015;49.392;15.582;2022-10-16T01:51:55;8.82;;;5.45;;
75437;SDS011;64015;49.392;15.582;2022-10-16T01:54:23;8.30;;;5.13;;
75437;SDS011;64015;49.392;15.582;2022-10-16T01:56:52;12.70;;;4.88;;
75437;SDS011;64015;49.392;15.582;2022-10-16T01:59:20;11.05;;;5.40;;
75437;SDS011;64015;49.392;15.582;2022-10-16T02:01:50;9.88;;;5.55;;
75437;SDS011;64015;49.392;15.582;2022-10-16T02:04:27;11.48;;;6.15;;
75437;SDS011;64015;49.392;15.582;2022-10-16T02:06:55;11.80;;;6.68;;
75437;SDS011;64015;49.392;15.582;2022-10-16T02:09:21;11.68;;;5.75;;
75437;SDS011;64015;49.392;15.582;2022-10-16T02:11:47;11.63;;;6.22;;
75437;SDS011;64015;49.392;15.582;2022-10-16T02:14:14;12.35;;;6.85;;
75437;SDS011;64015;49.392;15.582;2022-10-16T02:16:41;11.80;;;6.53;;
75437;SDS011;64015;49.392;15.582;2022-10-16T02:19:09;11.52;;;5.90;;
75437;SDS011;64015;49.392;15.582;2022-10-16T02:21:40;9.00;;;5.03;;
75437;SDS011;64015;49.392;15.582;2022-10-16T02:26:41;9.60;;;5.53;;
75437;SDS011;64015;49.392;15.582;2022-10-16T02:29:12;8.55;;;4.72;;
75437;SDS011;64015;49.392;15.582;2022-10-16T02:31:41;8.60;;;5.13;;
75437;SDS011;64015;49.392;15.582;2022-10-16T02:34:14;9.38;;;5.15;;
75437;SDS011;64015;49.392;15.582;2022-10-16T02:36:41;10.52;;;6.05;;
75437;SDS011;64015;49.392;15.582;2022-10-16T02:39:09;9.48;;;5.30;;
75437;SDS011;64015;49.392;15.582;2022-10-16T02:41:35;12.80;;;6.75;;
75437;SDS011;64015;49.392;15.582;2022-10-16T02:44:01;11.85;;;6.10;;
75437;SDS011;64015;49.392;15.582;2022-10-16T02:46:27;10.43;;;6.22;;
75437;SDS011;64015;49.392;15.582;2022-10-16T02:48:52;11.60;;;6.20;;
75437;SDS011;64015;49.392;15.582;2022-10-16T02:51:18;12.18;;;6.65;;
75437;SDS011;64015;49.392;15.582;2022-10-16T02:53:43;10.23;;;6.00;;
75437;SDS011;64015;49.392;15.582;2022-10-16T02:56:09;13.07;;;6.40;;
75437;SDS011;64015;49.392;15.582;2022-10-16T02:58:34;11.30;;;6.00;;
75437;SDS011;64015;49.392;15.582;2022-10-16T03:01:02;12.93;;;7.57;;
75437;SDS011;64015;49.392;15.582;2022-10-16T03:03:27;13.10;;;7.50;;
75437;SDS011;64015;49.392;15.582;2022-10-16T03:05:52;12.38;;;6.75;;
75437;SDS011;64015;49.392;15.582;2022-10-16T03:08:18;12.52;;;7.30;;
75437;SDS011;64015;49.392;15.582;2022-10-16T03:10:48;15.73;;;8.02;;
75437;SDS011;64015;49.392;15.582;2022-10-16T03:13:14;17.13;;;7.80;;
75437;SDS011;64015;49.392;15.582;2022-10-16T03:15:40;13.95;;;7.75;;
75437;SDS011;64015;49.392;15.582;2022-10-16T03:18:05;16.08;;;8.07;;
75437;SDS011;64015;49.392;15.582;2022-10-16T03:20:31;16.27;;;8.57;;
75437;SDS011;64015;49.392;15.582;2022-10-16T03:22:56;16.63;;;8.85;;
75437;SDS011;64015;49.392;15.582;2022-10-16T03:25:22;16.70;;;8.77;;
75437;SDS011;64015;49.392;15.582;2022-10-16T03:27:47;15.52;;;8.63;;
75437;SDS011;64015;49.392;15.582;2022-10-16T03:30:13;16.15;;;10.25;;
75437;SDS011;64015;49.392;15.582;2022-10-16T03:32:38;17.02;;;8.68;;
75437;SDS011;64015;49.392;15.582;2022-10-16T03:35:04;13.95;;;9.02;;
75437;SDS011;64015;49.392;15.582;2022-10-16T03:37:30;16.35;;;9.18;;
75437;SDS011;64015;49.392;15.582;2022-10-16T03:39:55;17.05;;;10.65;;
75437;SDS011;64015;49.392;15.582;2022-10-16T03:42:21;14.18;;;8.45;;
75437;SDS011;64015;49.392;15.582;2022-10-16T03:44:46;15.82;;;8.68;;
75437;SDS011;64015;49.392;15.582;2022-10-16T03:47:12;14.88;;;8.65;;
75437;SDS011;64015;49.392;15.582;2022-10-16T03:49:37;14.88;;;8.63;;
75437;SDS011;64015;49.392;15.582;2022-10-16T03:52:03;13.98;;;7.85;;
75437;SDS011;64015;49.392;15.582;2022-10-16T03:54:28;13.23;;;8.20;;
75437;SDS011;64015;49.392;15.582;2022-10-16T03:56:54;15.45;;;9.32;;
75437;SDS011;64015;49.392;15.582;2022-10-16T03:59:19;15.27;;;9.13;;
75437;SDS011;64015;49.392;15.582;2022-10-16T04:01:45;14.52;;;8.95;;
75437;SDS011;64015;49.392;15.582;2022-10-16T04:04:10;13.77;;;8.82;;
75437;SDS011;64015;49.392;15.582;2022-10-16T04:06:36;14.48;;;8.88;;
75437;SDS011;64015;49.392;15.582;2022-10-16T04:09:01;14.88;;;9.50;;
75437;SDS011;64015;49.392;15.582;2022-10-16T04:11:27;14.32;;;8.07;;
75437;SDS011;64015;49.392;15.582;2022-10-16T04:13:53;14.57;;;8.52;;
75437;SDS011;64015;49.392;15.582;2022-10-16T04:16:18;16.20;;;8.55;;
75437;SDS011;64015;49.392;15.582;2022-10-16T04:18:44;15.52;;;8.20;;
75437;SDS011;64015;49.392;15.582;2022-10-16T04:21:09;15.88;;;8.93;;
75437;SDS011;64015;49.392;15.582;2022-10-16T04:23:35;15.32;;;9.18;;
75437;SDS011;64015;49.392;15.582;2022-10-16T04:26:00;14.65;;;8.38;;
75437;SDS011;64015;49.392;15.582;2022-10-16T04:28:26;13.85;;;8.35;;
75437;SDS011;64015;49.392;15.582;2022-10-16T04:30:52;13.43;;;8.38;;
75437;SDS011;64015;49.392;15.582;2022-10-16T04:33:18;13.18;;;7.50;;
75437;SDS011;64015;49.392;15.582;2022-10-16T04:35:44;14.38;;;7.82;;
75437;SDS011;64015;49.392;15.582;2022-10-16T04:38:09;13.93;;;8.48;;
75437;SDS011;64015;49.392;15.582;2022-10-16T04:40:35;15.10;;;8.40;;
75437;SDS011;64015;49.392;15.582;2022-10-16T04:43:04;11.95;;;7.30;;
75437;SDS011;64015;49.392;15.582;2022-10-16T04:45:30;14.25;;;7.55;;
75437;SDS011;64015;49.392;15.582;2022-10-16T04:47:57;12.77;;;8.25;;
75437;SDS011;64015;49.392;15.582;2022-10-16T04:50:23;12.48;;;7.90;;
75437;SDS011;64015;49.392;15.582;2022-10-16T04:52:48;12.32;;;7.95;;
75437;SDS011;64015;49.392;15.582;2022-10-16T04:55:14;13.48;;;7.32;;
75437;SDS011;64015;49.392;15.582;2022-10-16T04:57:40;12.05;;;7.78;;
75437;SDS011;64015;49.392;15.582;2022-10-16T05:00:06;14.55;;;8.68;;
75437;SDS011;64015;49.392;15.582;2022-10-16T05:02:33;14.35;;;8.50;;
75437;SDS011;64015;49.392;15.582;2022-10-16T05:04:59;15.23;;;8.35;;
75437;SDS011;64015;49.392;15.582;2022-10-16T05:07:24;13.30;;;7.97;;
75437;SDS011;64015;49.392;15.582;2022-10-16T05:09:50;14.02;;;8.48;;
75437;SDS011;64015;49.392;15.582;2022-10-16T05:12:15;13.10;;;8.18;;
75437;SDS011;64015;49.392;15.582;2022-10-16T05:14:41;14.73;;;8.02;;
75437;SDS011;64015;49.392;15.582;2022-10-16T05:17:06;14.23;;;8.60;;
75437;SDS011;64015;49.392;15.582;2022-10-16T05:19:32;15.25;;;8.30;;
75437;SDS011;64015;49.392;15.582;2022-10-16T05:21:58;14.18;;;8.30;;
75437;SDS011;64015;49.392;15.582;2022-10-16T05:24:24;12.90;;;7.95;;
75437;SDS011;64015;49.392;15.582;2022-10-16T05:26:49;13.27;;;7.97;;
75437;SDS011;64015;49.392;15.582;2022-10-16T05:29:15;12.40;;;7.93;;
75437;SDS011;64015;49.392;15.582;2022-10-16T05:31:41;12.65;;;7.72;;
75437;SDS011;64015;49.392;15.582;2022-10-16T05:34:06;13.35;;;8.80;;
75437;SDS011;64015;49.392;15.582;2022-10-16T05:36:32;12.38;;;7.63;;
75437;SDS011;64015;49.392;15.582;2022-10-16T05:38:58;15.43;;;9.43;;
75437;SDS011;64015;49.392;15.582;2022-10-16T05:41:23;13.80;;;7.65;;
75437;SDS011;64015;49.392;15.582;2022-10-16T05:43:54;13.73;;;8.23;;
75437;SDS011;64015;49.392;15.582;2022-10-16T05:46:20;12.60;;;8.23;;
75437;SDS011;64015;49.392;15.582;2022-10-16T05:48:46;11.63;;;7.40;;
75437;SDS011;64015;49.392;15.582;2022-10-16T05:51:12;12.85;;;7.53;;
75437;SDS011;64015;49.392;15.582;2022-10-16T05:53:40;17.45;;;7.93;;
75437;SDS011;64015;49.392;15.582;2022-10-16T05:56:06;13.43;;;7.97;;
75437;SDS011;64015;49.392;15.582;2022-10-16T05:58:35;12.88;;;7.55;;
75437;SDS011;64015;49.392;15.582;2022-10-16T06:01:03;13.18;;;7.90;;
75437;SDS011;64015;49.392;15.582;2022-10-16T06:03:32;11.23;;;6.95;;
75437;SDS011;64015;49.392;15.582;2022-10-16T06:05:58;10.70;;;7.30;;
75437;SDS011;64015;49.392;15.582;2022-10-16T06:08:26;11.23;;;7.03;;
75437;SDS011;64015;49.392;15.582;2022-10-16T06:11:03;10.57;;;6.65;;
75437;SDS011;64015;49.392;15.582;2022-10-16T06:13:30;12.05;;;6.78;;
75437;SDS011;64015;49.392;15.582;2022-10-16T06:15:57;9.38;;;6.82;;
75437;SDS011;64015;49.392;15.582;2022-10-16T06:18:25;10.57;;;6.95;;
75437;SDS011;64015;49.392;15.582;2022-10-16T06:23:18;8.98;;;5.90;;
75437;SDS011;64015;49.392;15.582;2022-10-16T06:25:43;10.15;;;6.63;;
75437;SDS011;64015;49.392;15.582;2022-10-16T06:28:09;11.43;;;6.65;;
75437;SDS011;64015;49.392;15.582;2022-10-16T06:30:34;10.60;;;6.57;;
75437;SDS011;64015;49.392;15.582;2022-10-16T06:33:00;12.60;;;8.15;;
75437;SDS011;64015;49.392;15.582;2022-10-16T06:35:25;12.20;;;7.40;;
75437;SDS011;64015;49.392;15.582;2022-10-16T06:37:52;11.82;;;7.43;;
75437;SDS011;64015;49.392;15.582;2022-10-16T06:40:18;11.25;;;7.78;;
75437;SDS011;64015;49.392;15.582;2022-10-16T06:42:44;12.15;;;8.02;;
75437;SDS011;64015;49.392;15.582;2022-10-16T06:45:09;12.75;;;8.10;;
75437;SDS011;64015;49.392;15.582;2022-10-16T06:47:35;13.07;;;8.00;;
75437;SDS011;64015;49.392;15.582;2022-10-16T06:50:01;14.80;;;8.68;;
75437;SDS011;64015;49.392;15.582;2022-10-16T06:52:29;15.00;;;8.65;;
75437;SDS011;64015;49.392;15.582;2022-10-16T06:54:55;14.70;;;8.50;;
75437;SDS011;64015;49.392;15.582;2022-10-16T06:57:20;13.82;;;8.45;;
75437;SDS011;64015;49.392;15.582;2022-10-16T06:59:46;12.75;;;7.80;;
75437;SDS011;64015;49.392;15.582;2022-10-16T07:02:11;14.25;;;8.50;;
75437;SDS011;64015;49.392;15.582;2022-10-16T07:04:37;13.80;;;8.05;;
75437;SDS011;64015;49.392;15.582;2022-10-16T07:07:02;10.07;;;6.03;;
75437;SDS011;64015;49.392;15.582;2022-10-16T07:09:28;12.02;;;6.93;;
75437;SDS011;64015;49.392;15.582;2022-10-16T07:11:55;10.35;;;6.78;;
75437;SDS011;64015;49.392;15.582;2022-10-16T07:14:21;11.07;;;7.05;;
75437;SDS011;64015;49.392;15.582;2022-10-16T07:16:47;10.65;;;6.55;;
75437;SDS011;64015;49.392;15.582;2022-10-16T07:19:13;9.57;;;6.47;;
75437;SDS011;64015;49.392;15.582;2022-10-16T07:21:40;9.32;;;6.13;;
75437;SDS011;64015;49.392;15.582;2022-10-16T07:24:10;8.38;;;5.72;;
75437;SDS011;64015;49.392;15.582;2022-10-16T07:26:41;10.68;;;6.10;;
75437;SDS011;64015;49.392;15.582;2022-10-16T07:29:11;8.07;;;5.68;;
75437;SDS011;64015;49.392;15.582;2022-10-16T07:31:39;9.32;;;5.57;;
75437;SDS011;64015;49.392;15.582;2022-10-16T07:34:05;8.80;;;5.75;;
75437;SDS011;64015;49.392;15.582;2022-10-16T07:36:35;9.13;;;6.18;;
75437;SDS011;64015;49.392;15.582;2022-10-16T07:39:01;8.77;;;5.68;;
75437;SDS011;64015;49.392;15.582;2022-10-16T07:41:26;8.45;;;5.20;;
75437;SDS011;64015;49.392;15.582;2022-10-16T07:43:53;7.45;;;5.30;;
75437;SDS011;64015;49.392;15.582;2022-10-16T07:46:20;8.25;;;5.55;;
75437;SDS011;64015;49.392;15.582;2022-10-16T07:48:47;6.65;;;5.00;;
75437;SDS011;64015;49.392;15.582;2022-10-16T07:51:20;8.05;;;5.05;;
75437;SDS011;64015;49.392;15.582;2022-10-16T07:53:49;7.50;;;4.90;;
75437;SDS011;64015;49.392;15.582;2022-10-16T07:56:16;10.60;;;7.03;;
75437;SDS011;64015;49.392;15.582;2022-10-16T07:58:43;13.15;;;8.00;;
75437;SDS011;64015;49.392;15.582;2022-10-16T08:01:10;9.23;;;5.70;;
75437;SDS011;64015;49.392;15.582;2022-10-16T08:03:38;9.23;;;5.25;;
75437;SDS011;64015;49.392;15.582;2022-10-16T08:06:03;8.25;;;5.57;;
75437;SDS011;64015;49.392;15.582;2022-10-16T08:08:30;6.13;;;3.97;;
75437;SDS011;64015;49.392;15.582;2022-10-16T08:10:55;6.28;;;4.00;;
75437;SDS011;64015;49.392;15.582;2022-10-16T08:13:21;7.45;;;4.80;;
75437;SDS011;64015;49.392;15.582;2022-10-16T08:15:47;5.43;;;3.78;;
75437;SDS011;64015;49.392;15.582;2022-10-16T08:18:13;5.90;;;4.72;;
75437;SDS011;64015;49.392;15.582;2022-10-16T08:20:40;6.05;;;4.45;;
75437;SDS011;64015;49.392;15.582;2022-10-16T08:23:08;6.50;;;4.45;;
75437;SDS011;64015;49.392;15.582;2022-10-16T08:25:35;6.18;;;4.05;;
75437;SDS011;64015;49.392;15.582;2022-10-16T08:28:05;5.93;;;3.95;;
75437;SDS011;64015;49.392;15.582;2022-10-16T08:30:33;5.30;;;3.80;;
75437;SDS011;64015;49.392;15.582;2022-10-16T08:32:58;6.10;;;3.53;;
75437;SDS011;64015;49.392;15.582;2022-10-16T08:35:24;4.85;;;3.03;;
75437;SDS011;64015;49.392;15.582;2022-10-16T08:37:50;4.43;;;3.10;;
75437;SDS011;64015;49.392;15.582;2022-10-16T08:40:19;5.53;;;3.58;;
75437;SDS011;64015;49.392;15.582;2022-10-16T08:46:00;6.25;;;3.97;;
75437;SDS011;64015;49.392;15.582;2022-10-16T08:48:34;5.10;;;3.53;;
75437;SDS011;64015;49.392;15.582;2022-10-16T08:51:07;5.95;;;3.42;;
75437;SDS011;64015;49.392;15.582;2022-10-16T08:56:23;6.05;;;3.47;;
75437;SDS011;64015;49.392;15.582;2022-10-16T08:58:51;5.60;;;3.88;;
75437;SDS011;64015;49.392;15.582;2022-10-16T09:01:18;5.28;;;3.38;;
75437;SDS011;64015;49.392;15.582;2022-10-16T09:06:36;5.60;;;3.33;;
75437;SDS011;64015;49.392;15.582;2022-10-16T09:09:16;5.90;;;3.50;;
75437;SDS011;64015;49.392;15.582;2022-10-16T09:17:30;4.72;;;3.45;;
75437;SDS011;64015;49.392;15.582;2022-10-16T09:20:19;4.63;;;3.00;;
75437;SDS011;64015;49.392;15.582;2022-10-16T09:22:46;5.65;;;3.90;;
75437;SDS011;64015;49.392;15.582;2022-10-16T09:25:12;5.00;;;3.30;;
75437;SDS011;64015;49.392;15.582;2022-10-16T09:27:40;4.88;;;3.80;;
75437;SDS011;64015;49.392;15.582;2022-10-16T09:30:11;5.38;;;4.05;;
75437;SDS011;64015;49.392;15.582;2022-10-16T09:32:41;7.00;;;4.40;;
75437;SDS011;64015;49.392;15.582;2022-10-16T09:38:00;10.23;;;7.03;;
75437;SDS011;64015;49.392;15.582;2022-10-16T09:42:52;10.57;;;7.07;;
75437;SDS011;64015;49.392;15.582;2022-10-16T09:45:24;10.98;;;7.93;;
75437;SDS011;64015;49.392;15.582;2022-10-16T09:47:49;11.63;;;7.57;;
75437;SDS011;64015;49.392;15.582;2022-10-16T09:50:26;10.45;;;7.30;;
75437;SDS011;64015;49.392;15.582;2022-10-16T09:53:02;11.68;;;7.60;;
75437;SDS011;64015;49.392;15.582;2022-10-16T09:55:30;13.15;;;8.13;;
75437;SDS011;64015;49.392;15.582;2022-10-16T09:57:55;12.27;;;8.23;;
75437;SDS011;64015;49.392;15.582;2022-10-16T10:00:21;13.05;;;8.20;;
75437;SDS011;64015;49.392;15.582;2022-10-16T10:02:48;10.90;;;7.50;;
75437;SDS011;64015;49.392;15.582;2022-10-16T10:05:47;9.02;;;7.07;;
75437;SDS011;64015;49.392;15.582;2022-10-16T10:08:06;11.38;;;8.73;;
75437;SDS011;64015;49.392;15.582;2022-10-16T10:10:34;12.13;;;8.73;;
75437;SDS011;64015;49.392;15.582;2022-10-16T10:13:14;12.90;;;8.82;;
75437;SDS011;64015;49.392;15.582;2022-10-16T10:15:43;12.85;;;8.95;;
75437;SDS011;64015;49.392;15.582;2022-10-16T10:18:15;12.18;;;9.23;;
75437;SDS011;64015;49.392;15.582;2022-10-16T10:23:23;12.80;;;9.55;;
75437;SDS011;64015;49.392;15.582;2022-10-16T10:25:52;12.23;;;8.65;;
75437;SDS011;64015;49.392;15.582;2022-10-16T10:31:21;12.52;;;9.40;;
75437;SDS011;64015;49.392;15.582;2022-10-16T10:36:36;13.05;;;10.02;;
75437;SDS011;64015;49.392;15.582;2022-10-16T10:39:17;13.48;;;10.65;;
75437;SDS011;64015;49.392;15.582;2022-10-16T10:53:03;18.38;;;12.13;;
75437;SDS011;64015;49.392;15.582;2022-10-16T10:58:27;20.17;;;12.32;;
75437;SDS011;64015;49.392;15.582;2022-10-16T11:01:14;17.65;;;11.85;;
75437;SDS011;64015;49.392;15.582;2022-10-16T11:06:57;23.35;;;13.98;;
75437;SDS011;64015;49.392;15.582;2022-10-16T11:09:47;21.58;;;12.38;;
75437;SDS011;64015;49.392;15.582;2022-10-16T11:12:26;23.40;;;14.45;;
75437;SDS011;64015;49.392;15.582;2022-10-16T11:15:02;23.90;;;14.98;;
75437;SDS011;64015;49.392;15.582;2022-10-16T11:17:39;26.75;;;15.93;;
75437;SDS011;64015;49.392;15.582;2022-10-16T11:22:50;28.33;;;15.88;;
75437;SDS011;64015;49.392;15.582;2022-10-16T11:25:32;22.35;;;13.55;;
75437;SDS011;64015;49.392;15.582;2022-10-16T11:30:56;21.55;;;13.55;;
75437;SDS011;64015;49.392;15.582;2022-10-16T11:35:55;20.05;;;12.10;;
75437;SDS011;64015;49.392;15.582;2022-10-16T11:41:22;18.63;;;12.35;;
75437;SDS011;64015;49.392;15.582;2022-10-16T11:44:00;19.92;;;14.00;;
75437;SDS011;64015;49.392;15.582;2022-10-16T11:46:29;22.23;;;14.52;;
75437;SDS011;64015;49.392;15.582;2022-10-16T11:49:00;18.70;;;13.38;;
75437;SDS011;64015;49.392;15.582;2022-10-16T11:51:39;20.15;;;13.73;;
75437;SDS011;64015;49.392;15.582;2022-10-16T11:56:46;20.23;;;15.10;;
75437;SDS011;64015;49.392;15.582;2022-10-16T12:02:13;22.42;;;16.67;;
75437;SDS011;64015;49.392;15.582;2022-10-16T12:04:48;18.50;;;13.45;;
75437;SDS011;64015;49.392;15.582;2022-10-16T12:07:24;20.65;;;14.82;;
75437;SDS011;64015;49.392;15.582;2022-10-16T12:09:57;22.80;;;15.88;;
75437;SDS011;64015;49.392;15.582;2022-10-16T12:12:27;24.88;;;15.48;;
75437;SDS011;64015;49.392;15.582;2022-10-16T12:17:48;21.77;;;15.35;;
75437;SDS011;64015;49.392;15.582;2022-10-16T12:22:56;19.67;;;14.65;;
75437;SDS011;64015;49.392;15.582;2022-10-16T12:25:25;18.42;;;14.75;;
75437;SDS011;64015;49.392;15.582;2022-10-16T12:27:54;19.25;;;13.73;;
75437;SDS011;64015;49.392;15.582;2022-10-16T12:30:24;20.35;;;14.30;;
75437;SDS011;64015;49.392;15.582;2022-10-16T12:32:53;23.95;;;16.38;;
75437;SDS011;64015;49.392;15.582;2022-10-16T12:35:23;23.38;;;16.60;;
75437;SDS011;64015;49.392;15.582;2022-10-16T12:37:52;24.67;;;16.95;;
75437;SDS011;64015;49.392;15.582;2022-10-16T12:42:47;22.83;;;16.02;;
75437;SDS011;64015;49.392;15.582;2022-10-16T12:47:49;22.23;;;16.33;;
75437;SDS011;64015;49.392;15.582;2022-10-16T12:50:23;21.48;;;15.75;;
75437;SDS011;64015;49.392;15.582;2022-10-16T12:52:49;20.42;;;15.13;;
75437;SDS011;64015;49.392;15.582;2022-10-16T13:00:48;23.73;;;15.95;;
75437;SDS011;64015;49.392;15.582;2022-10-16T13:03:38;23.73;;;16.45;;
75437;SDS011;64015;49.392;15.582;2022-10-16T13:06:36;22.30;;;16.02;;
75437;SDS011;64015;49.392;15.582;2022-10-16T13:17:41;24.23;;;16.25;;
75437;SDS011;64015;49.392;15.582;2022-10-16T13:20:31;23.38;;;15.85;;
75437;SDS011;64015;49.392;15.582;2022-10-16T13:28:40;22.42;;;15.40;;
75437;SDS011;64015;49.392;15.582;2022-10-16T13:33:40;20.73;;;14.50;;
75437;SDS011;64015;49.392;15.582;2022-10-16T13:39:21;22.95;;;16.35;;
75437;SDS011;64015;49.392;15.582;2022-10-16T13:44:25;24.17;;;16.77;;
75437;SDS011;64015;49.392;15.582;2022-10-16T13:46:58;24.23;;;16.77;;
75437;SDS011;64015;49.392;15.582;2022-10-16T13:49:27;27.05;;;19.30;;
75437;SDS011;64015;49.392;15.582;2022-10-16T13:51:56;28.45;;;18.08;;
75437;SDS011;64015;49.392;15.582;2022-10-16T13:54:23;24.70;;;16.65;;
75437;SDS011;64015;49.392;15.582;2022-10-16T13:56:50;24.73;;;17.70;;
75437;SDS011;64015;49.392;15.582;2022-10-16T13:59:23;28.65;;;18.15;;
75437;SDS011;64015;49.392;15.582;2022-10-16T14:01:53;27.33;;;18.73;;
75437;SDS011;64015;49.392;15.582;2022-10-16T14:04:21;26.58;;;19.08;;
75437;SDS011;64015;49.392;15.582;2022-10-16T14:06:49;28.20;;;18.58;;
75437;SDS011;64015;49.392;15.582;2022-10-16T14:11:53;31.05;;;19.77;;
75437;SDS011;64015;49.392;15.582;2022-10-16T14:14:21;30.27;;;19.55;;
75437;SDS011;64015;49.392;15.582;2022-10-16T14:16:48;33.88;;;20.02;;
75437;SDS011;64015;49.392;15.582;2022-10-16T14:19:23;32.05;;;18.92;;
75437;SDS011;64015;49.392;15.582;2022-10-16T14:21:55;33.35;;;18.42;;
75437;SDS011;64015;49.392;15.582;2022-10-16T14:24:25;33.70;;;18.95;;
75437;SDS011;64015;49.392;15.582;2022-10-16T14:26:51;35.45;;;20.63;;
75437;SDS011;64015;49.392;15.582;2022-10-16T14:29:18;35.03;;;20.00;;
75437;SDS011;64015;49.392;15.582;2022-10-16T14:31:58;34.05;;;18.77;;
75437;SDS011;64015;49.392;15.582;2022-10-16T14:34:29;28.70;;;17.27;;
75437;SDS011;64015;49.392;15.582;2022-10-16T14:36:59;29.38;;;17.98;;
75437;SDS011;64015;49.392;15.582;2022-10-16T14:39:32;30.13;;;19.17;;
75437;SDS011;64015;49.392;15.582;2022-10-16T14:41:58;31.15;;;19.27;;
75437;SDS011;64015;49.392;15.582;2022-10-16T14:44:33;31.17;;;19.45;;
75437;SDS011;64015;49.392;15.582;2022-10-16T14:47:06;33.55;;;20.95;;
75437;SDS011;64015;49.392;15.582;2022-10-16T14:49:34;31.42;;;20.45;;
75437;SDS011;64015;49.392;15.582;2022-10-16T14:52:00;32.97;;;20.67;;
75437;SDS011;64015;49.392;15.582;2022-10-16T14:54:26;34.13;;;20.25;;
75437;SDS011;64015;49.392;15.582;2022-10-16T14:56:53;33.58;;;21.40;;
75437;SDS011;64015;49.392;15.582;2022-10-16T14:59:30;33.80;;;20.88;;
75437;SDS011;64015;49.392;15.582;2022-10-16T15:04:27;28.65;;;18.17;;
75437;SDS011;64015;49.392;15.582;2022-10-16T15:06:55;25.80;;;16.88;;
75437;SDS011;64015;49.392;15.582;2022-10-16T15:09:21;29.88;;;19.65;;
75437;SDS011;64015;49.392;15.582;2022-10-16T15:11:47;28.80;;;17.25;;
75437;SDS011;64015;49.392;15.582;2022-10-16T15:14:12;28.10;;;16.77;;
75437;SDS011;64015;49.392;15.582;2022-10-16T15:16:40;30.70;;;18.27;;
75437;SDS011;64015;49.392;15.582;2022-10-16T15:19:05;26.42;;;16.35;;
75437;SDS011;64015;49.392;15.582;2022-10-16T15:21:31;25.63;;;15.95;;
75437;SDS011;64015;49.392;15.582;2022-10-16T15:23:58;23.13;;;15.45;;
75437;SDS011;64015;49.392;15.582;2022-10-16T15:26:25;25.27;;;15.20;;
75437;SDS011;64015;49.392;15.582;2022-10-16T15:28:52;26.90;;;15.65;;
75437;SDS011;64015;49.392;15.582;2022-10-16T15:31:23;26.38;;;15.13;;
75437;SDS011;64015;49.392;15.582;2022-10-16T15:33:49;27.92;;;16.13;;
75437;SDS011;64015;49.392;15.582;2022-10-16T15:36:26;28.98;;;16.48;;
75437;SDS011;64015;49.392;15.582;2022-10-16T15:38:56;29.45;;;17.10;;
75437;SDS011;64015;49.392;15.582;2022-10-16T15:41:23;28.05;;;16.35;;
75437;SDS011;64015;49.392;15.582;2022-10-16T15:43:50;27.05;;;16.38;;
75437;SDS011;64015;49.392;15.582;2022-10-16T15:46:20;27.52;;;16.40;;
75437;SDS011;64015;49.392;15.582;2022-10-16T15:48:47;27.27;;;15.90;;
75437;SDS011;64015;49.392;15.582;2022-10-16T15:51:16;31.05;;;15.77;;
75437;SDS011;64015;49.392;15.582;2022-10-16T15:53:44;32.63;;;17.55;;
75437;SDS011;64015;49.392;15.582;2022-10-16T15:56:11;27.83;;;16.67;;
75437;SDS011;64015;49.392;15.582;2022-10-16T15:58:38;28.73;;;15.65;;
75437;SDS011;64015;49.392;15.582;2022-10-16T16:01:04;26.10;;;15.82;;
75437;SDS011;64015;49.392;15.582;2022-10-16T16:03:30;25.00;;;14.00;;
75437;SDS011;64015;49.392;15.582;2022-10-16T16:05:56;26.25;;;13.68;;
75437;SDS011;64015;49.392;15.582;2022-10-16T16:08:22;25.95;;;14.25;;
75437;SDS011;64015;49.392;15.582;2022-10-16T16:11:01;24.50;;;14.20;;
75437;SDS011;64015;49.392;15.582;2022-10-16T16:13:29;28.50;;;14.65;;
75437;SDS011;64015;49.392;15.582;2022-10-16T16:15:54;32.33;;;15.32;;
75437;SDS011;64015;49.392;15.582;2022-10-16T16:18:20;27.60;;;15.40;;
75437;SDS011;64015;49.392;15.582;2022-10-16T16:20:46;30.08;;;15.77;;
75437;SDS011;64015;49.392;15.582;2022-10-16T16:23:11;33.92;;;17.55;;
75437;SDS011;64015;49.392;15.582;2022-10-16T16:25:43;33.33;;;18.38;;
75437;SDS011;64015;49.392;15.582;2022-10-16T16:28:09;38.83;;;19.05;;
75437;SDS011;64015;49.392;15.582;2022-10-16T16:30:39;40.95;;;20.33;;